This is the latest recevied weather packets stored in our database for station/object KD6VEX-1. If no packets are shown the sender has not sent any weather packets the latest 10 day(s).
| Time | Temp. | Humidity | Pressure | Rain* | Wind** | Luminosity | Snow |
|---|---|---|---|---|---|---|---|
| 1777919701 | 21.11° C | 40% | 1015.1 hPa | 0 mm | - | - | - |
| 1777918201 | 20.56° C | 42% | 1015.4 hPa | 0 mm | - | - | - |
| 1777916101 | 18.33° C | 53% | 1015.4 hPa | 0 mm | - | - | - |
| 1777915803 | 17.78° C | 55% | 1015.4 hPa | 0 mm | - | - | - |
| 1777915203 | 17.22° C | 57% | 1015.5 hPa | 0 mm | - | - | - |
| 1777914602 | 17.22° C | 60% | 1015.4 hPa | 0 mm | - | - | - |
| 1777909201 | 11.11° C | 83% | 1015.6 hPa | 0 mm | - | - | - |
| 1777908901 | 10.56° C | 85% | 1015.6 hPa | 0 mm | - | - | - |
| 1777905902 | 7.22° C | 93% | 1015.6 hPa | 0 mm | - | - | - |
| 1777905601 | 7.22° C | 94% | 1015.7 hPa | 0 mm | - | - | - |
| 1777905301 | 6.67° C | 94% | 1015.6 hPa | 0 mm | - | - | - |
| 1777901701 | 5.56° C | 93% | 1015.2 hPa | 0 mm | - | - | - |
| 1777901103 | 5° C | 92% | 1015.4 hPa | 0 mm | - | - | - |
| 1777900802 | 5° C | 92% | 1015.3 hPa | 0 mm | - | - | - |
| 1777900501 | 5.56° C | 92% | 1015.3 hPa | 0 mm | - | - | - |
| 1777898102 | 6.11° C | 93% | 1015 hPa | 0 mm | - | - | - |
| 1777897802 | 6.11° C | 93% | 1014.9 hPa | 0 mm | - | - | - |
| 1777897501 | 6.11° C | 93% | 1014.9 hPa | 0 mm | - | - | - |
| 1777897201 | 6.11° C | 93% | 1014.9 hPa | 0 mm | - | - | - |
| 1777896901 | 6.11° C | 93% | 1015.1 hPa | 0 mm | - | - | - |
| 1777896601 | 6.11° C | 92% | 1015 hPa | 0 mm | - | - | - |
| 1777895702 | 6.11° C | 92% | 1015 hPa | 0 mm | - | - | - |
| 1777895102 | 6.11° C | 92% | 1015 hPa | 0 mm | - | - | - |
| 1777894201 | 6.11° C | 91% | 1015.2 hPa | 0 mm | - | - | - |
| 1777893903 | 6.11° C | 91% | 1015.2 hPa | 0 mm | - | - | - |
* Rain latest hour (hover to see other rain measurements)
** Current wind speed in m/s (hover to see current wind gust speed)